| time (UTC) | temp C | wind direction | speed KPH | gust KPH | rain 1hr cm | rain 24hr cm | rain mn cm | humidity % | barometer mb |
| 20260507203017 | 8 | 312 | 1.6 | 4.8 | 0.00 | 0.58 | 0.18 | 91 | 1018.5 |
| 20260507201515 | 8 | 335 | 0.0 | 3.2 | 0.00 | 0.69 | 0.18 | 91 | 1018.3 |
| 20260507200027 | 8 | 319 | 3.2 | 6.4 | 0.00 | 0.81 | 0.18 | 91 | 1018.2 |
| 20260507194508 | 8 | 329 | 3.2 | 6.4 | 0.00 | 0.84 | 0.18 | 91 | 1018.1 |
| 20260507193027 | 9 | 25 | 3.2 | 9.7 | 0.00 | 0.84 | 0.18 | 91 | 1017.6 |
| 20260507191504 | 10 | 307 | 1.6 | 6.4 | 0.00 | 0.84 | 0.18 | 89 | 1017.6 |
| 20260507190007 | 10 | 289 | 0.0 | 4.8 | 0.00 | 0.84 | 0.18 | 87 | 1017.3 |
| 20260507184504 | 11 | 283 | 0.0 | 3.2 | 0.00 | 0.84 | 0.18 | 85 | 1017.4 |
| 20260507182957 | 11 | 312 | 0.0 | 4.8 | 0.00 | 0.84 | 0.18 | 85 | 1016.8 |
| 20260507181457 | 11 | 333 | 0.0 | 3.2 | 0.00 | 0.84 | 0.18 | 84 | 1016.9 |
| 20260507175956 | 12 | 298 | 0.0 | 4.8 | 0.00 | 0.84 | 0.18 | 79 | 1016.8 |
| 20260507174544 | 13 | 288 | 1.6 | 4.8 | 0.00 | 0.84 | 0.18 | 74 | 1016.6 |
| 20260507173021 | 15 | 311 | 0.0 | 6.4 | 0.00 | 0.84 | 0.18 | 73 | 1016.6 |
| 20260507171456 | 14 | 287 | 0.0 | 6.4 | 0.00 | 0.89 | 0.18 | 72 | 1016.4 |
| 20260507170009 | 14 | 287 | 3.2 | 11.3 | 0.00 | 0.94 | 0.18 | 73 | 1016.1 |
| 20260507164458 | 14 | 287 | 3.2 | 14.5 | 0.00 | 1.09 | 0.18 | 71 | 1016.1 |
| 20260507162956 | 14 | 319 | 4.8 | 14.5 | 0.00 | 1.17 | 0.18 | 69 | 1015.8 |
| 20260507161517 | 15 | 260 | 3.2 | 17.7 | 0.00 | 1.19 | 0.18 | 64 | 1015.9 |
| 20260507155959 | 17 | 260 | 4.8 | 14.5 | 0.00 | 1.22 | 0.18 | 56 | 1015.8 |
| 20260507154458 | 18 | 266 | 3.2 | 12.9 | 0.00 | 1.22 | 0.18 | 53 | 1015.5 |
| 20260507152957 | 19 | 250 | 3.2 | 12.9 | 0.00 | 1.22 | 0.18 | 49 | 1015.5 |
| 20260507151457 | 20 | 305 | 6.4 | 11.3 | 0.00 | 1.22 | 0.18 | 46 | 1015.1 |
| 20260507145957 | 19 | 276 | 4.8 | 14.5 | 0.00 | 1.22 | 0.18 | 51 | 1015.7 |
| 20260507144455 | 18 | 263 | 1.6 | 12.9 | 0.00 | 1.22 | 0.18 | 56 | 1015.6 |
| 20260507142955 | 16 | 240 | 0.0 | 16.1 | 0.00 | 1.22 | 0.18 | 57 | 1015.5 |
| 20260507141501 | 17 | 262 | 6.4 | 17.7 | 0.00 | 1.22 | 0.18 | 55 | 1015.4 |
| 20260507135956 | 20 | 305 | 6.4 | 22.5 | 0.00 | 1.22 | 0.18 | 50 | 1015.4 |
| 20260507134456 | 17 | 237 | 9.7 | 17.7 | 0.00 | 1.22 | 0.18 | 56 | 1015.5 |
| 20260507132955 | 17 | 222 | 8.0 | 20.9 | 0.00 | 1.22 | 0.18 | 60 | 1015.7 |
| 20260507131454 | 17 | 249 | 0.0 | 17.7 | 0.00 | 1.22 | 0.18 | 59 | 1015.6 |
| 20260507125954 | 17 | 211 | 8.0 | 17.7 | 0.00 | 1.22 | 0.18 | 56 | 1015.7 |
| 20260507124456 | 17 | 285 | 1.6 | 24.1 | 0.00 | 1.22 | 0.18 | 59 | 1015.6 |
| 20260507123002 | 17 | 249 | 0.0 | 16.1 | 0.00 | 1.22 | 0.18 | 60 | 1015.2 |
| 20260507121456 | 17 | 229 | 3.2 | 22.5 | 0.00 | 1.22 | 0.18 | 61 | 1015.2 |
| 20260507115954 | 16 | 239 | 4.8 | 20.9 | 0.00 | 1.22 | 0.18 | 64 | 1015.1 |
| 20260507114455 | 17 | 232 | 3.2 | 14.5 | 0.00 | 1.22 | 0.18 | 61 | 1014.9 |
| 20260507112955 | 17 | 267 | 3.2 | 24.1 | 0.00 | 1.22 | 0.18 | 63 | 1014.8 |
| 20260507111454 | 17 | 248 | 11.3 | 20.9 | 0.00 | 1.22 | 0.18 | 62 | 1014.9 |
| 20260507105955 | 19 | 283 | 4.8 | 25.7 | 0.00 | 1.22 | 0.18 | 59 | 1014.8 |
| 20260507104502 | 18 | 257 | 3.2 | 17.7 | 0.00 | 1.22 | 0.18 | 61 | 1014.7 |
| 20260507102956 | 17 | 198 | 8.0 | 24.1 | 0.00 | 1.22 | 0.18 | 62 | 1014.9 |
| 20260507101455 | 17 | 201 | 4.8 | 17.7 | 0.00 | 1.22 | 0.18 | 66 | 1014.7 |
| 20260507095957 | 16 | 283 | 6.4 | 22.5 | 0.00 | 1.22 | 0.18 | 68 | 1014.6 |
| 20260507094456 | 16 | 214 | 4.8 | 17.7 | 0.00 | 1.22 | 0.18 | 67 | 1014.7 |
| 20260507092955 | 16 | 243 | 4.8 | 16.1 | 0.00 | 1.22 | 0.18 | 68 | 1014.3 |
| 20260507091455 | 16 | 265 | 4.8 | 14.5 | 0.00 | 1.22 | 0.18 | 70 | 1014.2 |
| 20260507090001 | 17 | 252 | 8.0 | 17.7 | 0.00 | 1.22 | 0.18 | 69 | 1014.1 |
| 20260507084455 | 16 | 270 | 6.4 | 20.9 | 0.00 | 1.22 | 0.18 | 74 | 1013.9 |
| 20260507082955 | 15 | 290 | 3.2 | 16.1 | 0.00 | 1.22 | 0.18 | 76 | 1013.9 |
| 20260507081455 | 15 | 217 | 9.7 | 24.1 | 0.00 | 1.22 | 0.18 | 76 | 1013.8 |
| 20260507074456 | 15 | 269 | 3.2 | 16.1 | 0.00 | 1.22 | 0.18 | 83 | 1013.8 |
| 20260507072955 | 14 | 269 | 3.2 | 16.1 | 0.00 | 1.22 | 0.18 | 82 | 1013.5 |
| 20260507071449 | 13 | 226 | 6.4 | 16.1 | 0.00 | 1.22 | 0.18 | 85 | 1013.6 |
| 20260507065951 | 13 | 225 | 1.6 | 12.9 | 0.00 | 1.22 | 0.18 | 86 | 1013.3 |
| 20260507064451 | 13 | 263 | 0.0 | 14.5 | 0.00 | 1.22 | 0.18 | 86 | 1013.3 |
| 20260507062956 | 13 | 240 | 1.6 | 11.3 | 0.00 | 1.22 | 0.18 | 89 | 1013.3 |
| 20260507055938 | 12 | 264 | 3.2 | 12.9 | 0.00 | 1.22 | 0.18 | 90 | 1013.0 |
| 20260507054438 | 12 | 204 | 6.4 | 16.1 | 0.00 | 1.22 | 0.18 | 92 | 1012.6 |
| 20260507052939 | 11 | 245 | 0.0 | 11.3 | 0.00 | 1.22 | 0.18 | 94 | 1012.4 |
| 20260507051434 | 11 | 251 | 3.2 | 9.7 | 0.00 | 1.22 | 0.18 | 95 | 1012.3 |
| 20260507045934 | 11 | 235 | 0.0 | 12.9 | 0.00 | 1.22 | 0.18 | 96 | 1012.3 |
| 20260507044434 | 10 | 250 | 0.0 | 9.7 | 0.00 | 1.22 | 0.18 | 96 | 1012.2 |
| 20260507042931 | 10 | 221 | 1.6 | 9.7 | 0.00 | 1.22 | 0.18 | 96 | 1011.8 |
| 20260507041437 | 11 | 255 | 1.6 | 9.7 | 0.00 | 1.22 | 0.18 | 97 | 1011.7 |
| 20260507035930 | 11 | 224 | 3.2 | 9.7 | 0.00 | 1.22 | 0.18 | 97 | 1011.5 |
| 20260507034430 | 11 | 235 | 3.2 | 11.3 | 0.00 | 1.24 | 0.18 | 96 | 1011.4 |
| 20260507032930 | 11 | 194 | 1.6 | 12.9 | 0.00 | 1.24 | 0.18 | 96 | 1011.5 |
| 20260507031430 | 11 | 212 | 4.8 | 11.3 | 0.00 | 1.24 | 0.18 | 97 | 1011.2 |
| 20260507025931 | 11 | 204 | 6.4 | 9.7 | 0.00 | 1.24 | 0.18 | 97 | 1011.1 |
| 20260507024354 | 11 | 252 | 1.6 | 3.2 | 0.00 | 1.24 | 0.18 | 98 | 1011.0 |
| 20260507022833 | 11 | 253 | 0.0 | 3.2 | 0.00 | 1.24 | 0.18 | 98 | 1011.0 |
| 20260507020915 | 11 | 253 | 0.0 | 0.0 | 0.00 | 1.24 | 0.18 | 98 | 1011.1 |
| 20260507015413 | 11 | 253 | 0.0 | 0.0 | 0.00 | 1.24 | 0.18 | 97 | 1010.9 |
| 20260507013705 | 11 | 253 | 0.0 | 0.0 | 0.00 | 1.24 | 0.18 | 97 | 1011.2 |
| 20260507012203 | 11 | 253 | 0.0 | 3.2 | 0.00 | 1.24 | 0.18 | 97 | 1011.1 |
| 20260507010626 | 11 | 253 | 0.0 | 0.0 | 0.00 | 1.24 | 0.18 | 97 | 1011.0 |
| 20260507005124 | 11 | 253 | 0.0 | 0.0 | 0.00 | 1.24 | 0.18 | 97 | 1011.0 |
| 20260507003614 | 11 | 253 | 0.0 | 1.6 | 0.00 | 1.22 | 0.18 | 96 | 1010.5 |
| 20260507002115 | 11 | 253 | 0.0 | 4.8 | 0.00 | 1.22 | 0.18 | 97 | 1010.9 |
| 20260507000603 | 11 | 253 | 0.0 | 6.4 | 0.00 | 1.22 | 0.18 | 97 | 1010.6 |
| 20260506235100 | 11 | 358 | 0.0 | 3.2 | 0.00 | 1.24 | 0.18 | 97 | 1010.1 |
| 20260506233559 | 11 | 358 | 0.0 | 4.8 | 0.05 | 1.27 | 0.18 | 97 | 1009.4 |
| 20260506232054 | 11 | 46 | 0.0 | 3.2 | 0.10 | 1.27 | 0.18 | 97 | 1009.2 |
| 20260506230555 | 11 | 53 | 0.0 | 11.3 | 0.15 | 1.27 | 0.18 | 97 | 1009.2 |
| 20260506225057 | 11 | 293 | 1.6 | 14.5 | 0.20 | 1.27 | 0.18 | 97 | 1008.8 |
| 20260506223555 | 12 | 110 | 1.6 | 4.8 | 0.20 | 1.22 | 0.10 | 96 | 1009.3 |
| 20260506222054 | 12 | 202 | 1.6 | 12.9 | 0.28 | 1.17 | 0.10 | 97 | 1010.5 |
| 20260506220542 | 12 | 187 | 4.8 | 14.5 | 0.23 | 1.12 | 0.03 | 97 | 1011.0 |
| 20260506215043 | 12 | 254 | 3.2 | 11.3 | 0.20 | 1.07 | 1.07 | 96 | 1010.4 |
| 20260506213540 | 12 | 181 | 3.2 | 11.3 | 0.28 | 0.99 | 1.02 | 96 | 1010.5 |
| 20260506212049 | 12 | 257 | 4.8 | 14.5 | 0.28 | 0.91 | 0.91 | 96 | 1010.0 |
| 20260506210543 | 12 | 250 | 6.4 | 6.4 | 0.38 | 0.89 | 0.89 | 96 | 1009.2 |
| 20260506205046 | 12 | 78 | 3.2 | 6.4 | 0.43 | 0.86 | 0.86 | 95 | 1008.4 |